createdAt,value
2023-02-14T00:01:17.714Z,99.90
2023-02-14T00:03:44.438Z,99.90
2023-02-14T00:06:13.306Z,99.90
2023-02-14T00:08:40.961Z,99.90
2023-02-14T00:11:08.891Z,99.90
2023-02-14T00:13:35.698Z,99.90
2023-02-14T00:16:03.378Z,99.90
2023-02-14T00:19:05.969Z,99.90
2023-02-14T00:21:35.919Z,99.90
2023-02-14T00:24:07.321Z,99.90
2023-02-14T00:26:34.276Z,99.90
2023-02-14T00:29:01.159Z,99.90
2023-02-14T00:31:28.005Z,99.90
2023-02-14T00:33:55.852Z,99.90
2023-02-14T00:36:22.597Z,99.90
2023-02-14T00:38:50.159Z,99.90
2023-02-14T00:41:19.200Z,99.90
2023-02-14T00:43:47.251Z,99.90
2023-02-14T00:46:14.300Z,99.90
2023-02-14T00:48:41.283Z,99.90
2023-02-14T00:51:08.128Z,99.90
2023-02-14T00:53:34.940Z,99.90
2023-02-14T00:56:01.664Z,99.90
2023-02-14T00:58:28.434Z,99.90
2023-02-14T01:00:55.356Z,99.90
2023-02-14T01:03:22.083Z,99.90
2023-02-14T01:05:48.989Z,99.90
2023-02-14T01:08:15.688Z,99.90
2023-02-14T01:10:43.393Z,99.90
2023-02-14T01:13:10.656Z,99.90
2023-02-14T01:15:41.678Z,99.90
2023-02-14T01:18:08.575Z,99.90
2023-02-14T01:20:35.370Z,99.90
2023-02-14T01:23:02.125Z,99.90
2023-02-14T01:25:29.074Z,99.90
2023-02-14T01:27:58.512Z,99.90
2023-02-14T01:30:25.432Z,99.90
2023-02-14T01:32:52.224Z,99.90
2023-02-14T01:35:18.994Z,99.90
2023-02-14T01:37:45.678Z,99.90
2023-02-14T01:40:13.075Z,99.90
2023-02-14T01:42:42.505Z,99.90
2023-02-14T01:45:24.689Z,99.90
2023-02-14T01:47:53.793Z,99.90
2023-02-14T01:50:27.079Z,99.90
2023-02-14T01:52:57.085Z,99.90
2023-02-14T01:55:25.391Z,99.90
2023-02-14T01:57:54.970Z,99.90
2023-02-14T02:00:40.710Z,99.90
2023-02-14T02:03:07.449Z,99.90
2023-02-14T02:05:36.464Z,99.90
2023-02-14T02:08:03.271Z,99.90
2023-02-14T02:10:30.062Z,99.90
2023-02-14T02:12:56.760Z,99.90
2023-02-14T02:15:25.202Z,99.90
2023-02-14T02:18:15.662Z,99.90
2023-02-14T02:21:00.842Z,99.90
2023-02-14T02:23:39.167Z,99.90
2023-02-14T02:26:18.130Z,99.90
2023-02-14T02:29:27.849Z,99.90
2023-02-14T02:32:05.843Z,99.90
2023-02-14T02:34:42.627Z,99.90
2023-02-14T02:37:24.443Z,99.90
2023-02-14T02:40:06.148Z,99.90
2023-02-14T02:42:48.040Z,99.90
2023-02-14T02:45:59.578Z,99.90
2023-02-14T02:48:28.497Z,99.90
2023-02-14T02:51:15.110Z,99.90
2023-02-14T02:53:44.944Z,99.90
2023-02-14T02:56:36.200Z,99.90
2023-02-14T02:59:07.139Z,99.90
2023-02-14T03:01:35.492Z,99.90
2023-02-14T03:04:25.816Z,99.90
2023-02-14T03:06:52.622Z,99.90
2023-02-14T03:09:19.274Z,99.90
2023-02-14T03:12:12.617Z,99.90
2023-02-14T03:14:50.262Z,99.90
2023-02-14T03:17:22.448Z,99.90
2023-02-14T03:20:13.827Z,99.90
2023-02-14T03:22:58.572Z,99.90
2023-02-14T03:25:35.189Z,99.90
2023-02-14T03:28:13.061Z,99.90
2023-02-14T03:30:46.989Z,99.90
2023-02-14T03:33:44.192Z,99.90
2023-02-14T03:36:14.227Z,99.90
2023-02-14T03:38:50.316Z,99.90
2023-02-14T03:41:23.002Z,99.90
2023-02-14T03:43:54.056Z,99.90
2023-02-14T03:46:31.343Z,99.90
2023-02-14T03:48:59.515Z,99.90
2023-02-14T03:51:26.285Z,99.90
2023-02-14T03:53:56.352Z,99.90
2023-02-14T03:56:42.457Z,99.90
2023-02-14T03:59:17.803Z,99.90
2023-02-14T04:01:55.077Z,99.90
2023-02-14T04:04:24.008Z,99.90
2023-02-14T04:06:50.769Z,99.90
2023-02-14T04:09:17.524Z,99.90
2023-02-14T04:11:46.325Z,99.90
2023-02-14T04:14:13.108Z,99.90
2023-02-14T04:16:58.143Z,99.90
2023-02-14T04:19:25.024Z,99.90
2023-02-14T04:21:52.029Z,99.90
2023-02-14T04:24:19.263Z,99.90
2023-02-14T04:27:09.728Z,99.90
2023-02-14T04:29:37.949Z,99.90
2023-02-14T04:32:06.705Z,99.90
2023-02-14T04:34:33.555Z,99.90
2023-02-14T04:37:00.254Z,99.90
2023-02-14T04:39:27.106Z,99.90
2023-02-14T04:41:53.810Z,99.90
2023-02-14T04:44:20.716Z,99.90
2023-02-14T04:46:47.490Z,99.90
2023-02-14T04:49:14.314Z,99.90
2023-02-14T04:51:41.178Z,99.90
2023-02-14T04:54:07.957Z,99.90
2023-02-14T04:56:34.644Z,99.90
2023-02-14T04:59:01.449Z,99.90
2023-02-14T05:01:28.186Z,99.90
2023-02-14T05:03:54.874Z,99.90
2023-02-14T05:06:21.719Z,99.90
2023-02-14T05:08:48.412Z,99.90
2023-02-14T05:11:15.169Z,99.90
2023-02-14T05:13:41.894Z,99.90
2023-02-14T05:16:08.651Z,99.90
2023-02-14T05:18:37.012Z,99.90
2023-02-14T05:21:03.873Z,99.90
2023-02-14T05:23:30.601Z,99.90
2023-02-14T05:25:57.362Z,99.90
2023-02-14T05:28:24.076Z,99.90
2023-02-14T05:30:51.496Z,99.90
2023-02-14T05:33:18.319Z,99.90
2023-02-14T05:35:45.119Z,99.90
2023-02-14T05:38:13.108Z,99.90
2023-02-14T05:40:40.510Z,99.90
2023-02-14T05:43:07.253Z,99.90
2023-02-14T05:45:34.119Z,99.90
2023-02-14T05:48:00.904Z,99.90
2023-02-14T05:50:27.856Z,99.90
2023-02-14T05:52:55.027Z,99.90
2023-02-14T05:55:21.820Z,99.90
2023-02-14T05:57:48.576Z,99.90
2023-02-14T06:00:15.823Z,99.90
2023-02-14T06:02:42.501Z,99.90
2023-02-14T06:05:09.340Z,99.90
2023-02-14T06:07:36.055Z,99.90
2023-02-14T06:10:02.987Z,99.90
2023-02-14T06:12:29.615Z,99.90
2023-02-14T06:14:56.328Z,99.90
2023-02-14T06:17:22.985Z,99.90
2023-02-14T06:19:49.767Z,99.90
2023-02-14T06:22:16.511Z,99.90
2023-02-14T06:24:43.201Z,99.90
2023-02-14T06:27:09.932Z,99.90
2023-02-14T06:29:36.663Z,99.90
2023-02-14T06:32:06.844Z,99.90
2023-02-14T06:34:34.250Z,99.90
2023-02-14T06:37:01.187Z,99.90
2023-02-14T06:39:27.865Z,99.90
2023-02-14T06:41:54.584Z,99.90
2023-02-14T06:44:21.280Z,99.90
2023-02-14T06:46:48.028Z,99.90
2023-02-14T06:49:14.733Z,99.90
2023-02-14T06:51:41.425Z,99.90
2023-02-14T06:54:08.175Z,99.90
2023-02-14T06:56:34.870Z,99.90
2023-02-14T06:59:01.596Z,99.90
2023-02-14T07:01:28.620Z,99.90
2023-02-14T07:03:55.334Z,99.90
2023-02-14T07:06:22.046Z,99.90
2023-02-14T07:08:48.814Z,99.90
2023-02-14T07:11:15.733Z,99.90
2023-02-14T07:13:43.854Z,99.90
2023-02-14T07:16:10.950Z,99.90
2023-02-14T07:18:37.746Z,99.90
2023-02-14T07:21:04.597Z,99.90
2023-02-14T07:23:31.399Z,99.90
2023-02-14T07:25:58.170Z,99.90
2023-02-14T07:28:24.872Z,99.90
2023-02-14T07:30:51.640Z,99.90
2023-02-14T07:33:18.399Z,99.90
2023-02-14T07:35:45.077Z,99.90
2023-02-14T07:38:11.805Z,99.90
2023-02-14T07:40:38.599Z,99.90
2023-02-14T07:43:05.615Z,99.90
2023-02-14T07:45:32.315Z,99.90
2023-02-14T07:48:01.922Z,99.90
2023-02-14T07:50:28.991Z,99.90
2023-02-14T07:52:56.188Z,99.90
2023-02-14T07:55:25.008Z,99.90
2023-02-14T07:57:51.843Z,99.90
2023-02-14T08:00:19.074Z,99.90
2023-02-14T08:02:45.778Z,99.90
2023-02-14T08:05:12.601Z,99.90
2023-02-14T08:07:39.374Z,99.90
2023-02-14T08:10:06.848Z,99.90
2023-02-14T08:12:51.937Z,99.90
2023-02-14T08:15:37.180Z,99.90
2023-02-14T08:18:04.025Z,99.90
2023-02-14T08:20:30.814Z,99.90
2023-02-14T08:22:57.525Z,99.90
2023-02-14T08:25:24.240Z,99.90
2023-02-14T08:27:50.965Z,99.90
2023-02-14T08:30:18.250Z,99.90
2023-02-14T08:32:45.194Z,99.90
2023-02-14T08:35:11.868Z,99.90
2023-02-14T08:37:38.546Z,99.90
2023-02-14T08:40:05.987Z,99.90
2023-02-14T08:42:32.735Z,99.90
2023-02-14T08:44:59.447Z,99.90
2023-02-14T08:47:26.168Z,99.90
2023-02-14T08:49:52.906Z,99.90
2023-02-14T08:52:19.583Z,99.90
2023-02-14T08:54:46.274Z,99.90
2023-02-14T08:57:13.338Z,99.90
2023-02-14T08:59:39.998Z,99.90
2023-02-14T09:02:06.782Z,99.90
2023-02-14T09:04:35.336Z,99.90
2023-02-14T09:07:04.503Z,99.90
2023-02-14T09:09:31.946Z,99.90
2023-02-14T09:11:58.620Z,99.90
2023-02-14T09:14:25.345Z,99.90
2023-02-14T09:16:52.191Z,99.90
2023-02-14T09:19:18.964Z,99.90
2023-02-14T09:21:45.651Z,99.90
2023-02-14T09:24:12.516Z,99.90
2023-02-14T09:26:40.818Z,99.90
2023-02-14T09:29:07.604Z,99.90
2023-02-14T09:31:34.364Z,99.90
2023-02-14T09:34:01.134Z,99.90
2023-02-14T09:36:46.289Z,99.90
2023-02-14T09:39:12.994Z,99.90
2023-02-14T09:42:03.296Z,99.90
2023-02-14T09:44:36.632Z,99.90
2023-02-14T09:47:23.249Z,99.90
2023-02-14T09:49:52.926Z,99.90
2023-02-14T09:52:21.007Z,99.90
2023-02-14T09:54:51.120Z,99.90
2023-02-14T09:57:37.200Z,99.90
2023-02-14T10:00:21.484Z,99.90
2023-02-14T10:03:18.263Z,99.90
2023-02-14T10:06:23.439Z,99.90
2023-02-14T10:09:12.249Z,99.90
2023-02-14T10:11:39.021Z,99.90
2023-02-14T10:14:14.822Z,99.90
2023-02-14T10:17:05.532Z,99.90
2023-02-14T10:19:39.535Z,99.90
2023-02-14T10:22:31.284Z,99.90
2023-02-14T10:25:16.022Z,99.90
2023-02-14T10:27:47.086Z,99.90
2023-02-14T10:30:19.771Z,99.90
2023-02-14T10:32:53.105Z,99.90
2023-02-14T10:35:28.695Z,99.90
2023-02-14T10:37:59.514Z,99.90
2023-02-14T10:40:44.121Z,99.90
2023-02-14T10:44:02.345Z,99.90
2023-02-14T10:46:50.032Z,99.90
2023-02-14T10:49:48.065Z,99.90
2023-02-14T10:52:38.455Z,99.90
2023-02-14T10:55:20.245Z,99.90
2023-02-14T10:57:57.067Z,99.90
2023-02-14T11:00:32.176Z,99.90
2023-02-14T11:03:00.540Z,99.90
2023-02-14T11:05:46.984Z,99.90
2023-02-14T11:08:47.044Z,99.90
2023-02-14T11:11:34.232Z,99.90
2023-02-14T11:14:35.730Z,99.90
2023-02-14T11:17:31.076Z,99.90
2023-02-14T11:20:20.738Z,99.90
2023-02-14T11:22:50.469Z,99.90
2023-02-14T11:25:27.995Z,99.90
2023-02-14T11:28:06.204Z,99.90
2023-02-14T11:30:40.912Z,99.90
2023-02-14T11:33:31.133Z,99.90
2023-02-14T11:35:57.906Z,99.90
2023-02-14T11:38:36.219Z,99.90
2023-02-14T11:41:03.096Z,99.90
2023-02-14T11:43:40.277Z,99.90
2023-02-14T11:46:24.963Z,99.90
2023-02-14T11:48:57.065Z,99.90
2023-02-14T11:51:41.535Z,99.90
2023-02-14T11:54:12.448Z,99.90
2023-02-14T11:56:57.735Z,99.90
2023-02-14T11:59:28.166Z,99.90
2023-02-14T12:01:55.989Z,99.90
2023-02-14T12:04:30.870Z,99.90
2023-02-14T12:07:18.672Z,99.90
2023-02-14T12:09:46.788Z,99.90
2023-02-14T12:12:23.664Z,99.90
2023-02-14T12:14:50.519Z,99.90
2023-02-14T12:17:35.602Z,99.90
2023-02-14T12:20:16.502Z,99.90
2023-02-14T12:22:46.223Z,99.90
2023-02-14T12:25:39.910Z,99.90
2023-02-14T12:28:13.254Z,99.90
2023-02-14T12:30:39.988Z,99.90
2023-02-14T12:33:20.395Z,99.90
2023-02-14T12:35:47.136Z,99.90
2023-02-14T12:38:39.409Z,99.90
2023-02-14T12:41:29.359Z,99.20
2023-02-14T12:43:56.803Z,96.80
2023-02-14T12:46:42.415Z,96.20
2023-02-14T12:49:24.260Z,96.20
2023-02-14T12:52:15.823Z,93.80
2023-02-14T12:54:49.330Z,95.20
2023-02-14T12:57:34.806Z,95.50
2023-02-14T13:00:04.486Z,95.50
2023-02-14T13:02:40.458Z,93.40
2023-02-14T13:05:31.790Z,91.70
2023-02-14T13:08:30.429Z,84.40
2023-02-14T13:11:06.310Z,80.90
2023-02-14T13:13:45.068Z,80.40
2023-02-14T13:16:11.778Z,79.00
2023-02-14T13:18:49.956Z,76.70
2023-02-14T13:21:19.746Z,75.50
2023-02-14T13:23:53.253Z,74.50
2023-02-14T13:26:25.266Z,73.00
2023-02-14T13:29:06.423Z,75.00
2023-02-14T13:31:33.517Z,77.20
2023-02-14T13:34:07.024Z,76.50
2023-02-14T13:36:33.693Z,75.00
2023-02-14T13:39:00.375Z,75.40
2023-02-14T13:41:30.440Z,79.50
2023-02-14T13:43:58.642Z,84.80
2023-02-14T13:46:35.060Z,91.30
2023-02-14T13:49:03.594Z,93.40
2023-02-14T13:51:50.097Z,95.10
2023-02-14T13:54:46.014Z,96.30
2023-02-14T13:57:36.440Z,97.70
2023-02-14T14:00:30.135Z,98.30
2023-02-14T14:02:57.040Z,98.20
2023-02-14T14:05:29.848Z,98.70
2023-02-14T14:08:22.226Z,99.30
2023-02-14T14:10:50.682Z,99.90
2023-02-14T14:13:42.506Z,99.90
2023-02-14T14:16:27.418Z,99.90
2023-02-14T14:19:09.289Z,99.90
2023-02-14T14:21:58.804Z,99.90
2023-02-14T14:24:27.601Z,99.90
2023-02-14T14:27:16.208Z,99.90
2023-02-14T14:29:56.873Z,99.90
2023-02-14T14:32:28.060Z,99.90
2023-02-14T14:34:59.881Z,99.90
2023-02-14T14:37:28.855Z,99.90
2023-02-14T14:39:57.536Z,99.90
2023-02-14T14:42:25.791Z,99.90
2023-02-14T14:44:59.882Z,99.90
2023-02-14T14:47:28.403Z,99.90
2023-02-14T14:49:59.114Z,99.90
2023-02-14T14:52:37.818Z,99.90
2023-02-14T14:55:06.016Z,99.90
2023-02-14T14:57:39.585Z,99.90
2023-02-14T15:00:13.993Z,99.90
2023-02-14T15:02:40.710Z,99.90
2023-02-14T15:05:23.562Z,99.90
2023-02-14T15:07:50.429Z,99.90
2023-02-14T15:10:28.476Z,99.90
2023-02-14T15:13:15.638Z,99.90
2023-02-14T15:15:43.104Z,99.90
2023-02-14T15:18:11.952Z,99.90
2023-02-14T15:20:41.416Z,99.90
2023-02-14T15:23:13.981Z,99.90
2023-02-14T15:25:44.605Z,99.90
2023-02-14T15:28:18.310Z,99.90
2023-02-14T15:30:46.568Z,99.90
2023-02-14T15:33:13.286Z,99.90
2023-02-14T15:35:42.217Z,99.90
2023-02-14T15:38:10.541Z,99.90
2023-02-14T15:40:38.744Z,99.90
2023-02-14T15:43:29.445Z,99.90
2023-02-14T15:45:58.172Z,99.90
2023-02-14T15:48:33.257Z,99.90
2023-02-14T15:51:01.445Z,99.90
2023-02-14T15:53:50.071Z,99.90
2023-02-14T15:56:26.571Z,99.90
2023-02-14T15:58:58.708Z,99.90
2023-02-14T16:01:26.992Z,99.90
2023-02-14T16:03:57.211Z,99.90
2023-02-14T16:06:38.382Z,99.90
2023-02-14T16:09:07.195Z,99.90
2023-02-14T16:11:37.969Z,99.90
2023-02-14T16:14:26.392Z,99.90
2023-02-14T16:16:57.476Z,99.90
2023-02-14T16:19:41.811Z,99.90
2023-02-14T16:22:09.902Z,99.90
2023-02-14T16:24:40.205Z,99.90
2023-02-14T16:27:07.001Z,99.90
2023-02-14T16:29:35.379Z,99.90
2023-02-14T16:32:21.005Z,99.90
2023-02-14T16:34:49.332Z,99.90
2023-02-14T16:37:35.113Z,99.90
2023-02-14T16:40:18.533Z,99.90
2023-02-14T16:42:55.744Z,99.90
2023-02-14T16:45:22.859Z,99.90
2023-02-14T16:47:49.597Z,99.90
2023-02-14T16:50:16.451Z,99.90
2023-02-14T16:52:43.340Z,99.90
2023-02-14T16:55:16.712Z,99.90
2023-02-14T16:57:43.949Z,99.90
2023-02-14T17:00:11.647Z,99.90
2023-02-14T17:02:38.371Z,99.90
2023-02-14T17:05:05.394Z,99.90
2023-02-14T17:07:32.541Z,99.90
2023-02-14T17:10:05.726Z,99.90
2023-02-14T17:12:34.948Z,99.90
2023-02-14T17:15:05.884Z,99.90
2023-02-14T17:17:32.922Z,99.90
2023-02-14T17:19:59.659Z,99.90
2023-02-14T17:22:26.350Z,99.90
2023-02-14T17:24:54.019Z,99.90
2023-02-14T17:27:21.898Z,99.90
2023-02-14T17:29:51.368Z,99.90
2023-02-14T17:32:18.252Z,99.90
2023-02-14T17:34:45.641Z,99.90
2023-02-14T17:37:12.433Z,99.90
2023-02-14T17:39:39.126Z,99.90
2023-02-14T17:42:05.860Z,99.90
2023-02-14T17:44:35.791Z,99.90
2023-02-14T17:47:03.859Z,99.90
2023-02-14T17:49:30.682Z,99.90
2023-02-14T17:51:57.839Z,99.90
2023-02-14T17:54:24.501Z,99.90
2023-02-14T17:56:51.227Z,99.90
2023-02-14T17:59:17.972Z,99.90
2023-02-14T18:01:44.678Z,99.90
2023-02-14T18:04:11.366Z,99.90
2023-02-14T18:06:38.051Z,99.90
2023-02-14T18:09:05.556Z,99.90
2023-02-14T18:11:32.503Z,99.90
2023-02-14T18:13:59.791Z,99.90
2023-02-14T18:16:26.588Z,99.90
2023-02-14T18:18:54.738Z,99.90
2023-02-14T18:21:21.732Z,99.90
2023-02-14T18:23:48.486Z,99.90
2023-02-14T18:26:15.722Z,99.90
2023-02-14T18:28:42.424Z,99.90
2023-02-14T18:31:11.119Z,99.90
2023-02-14T18:33:38.313Z,99.90
2023-02-14T18:36:07.117Z,99.90
2023-02-14T18:38:34.521Z,99.90
2023-02-14T18:41:08.402Z,99.90
2023-02-14T18:43:35.555Z,99.90
2023-02-14T18:46:06.705Z,99.90
2023-02-14T18:48:33.526Z,99.90
2023-02-14T18:51:11.352Z,99.90
2023-02-14T18:53:38.543Z,99.90
2023-02-14T18:56:06.343Z,99.90
2023-02-14T18:58:33.627Z,99.90
2023-02-14T19:01:09.174Z,99.90
2023-02-14T19:03:36.292Z,99.90
2023-02-14T19:06:03.158Z,99.90
2023-02-14T19:08:34.908Z,99.90
2023-02-14T19:11:02.545Z,99.90
2023-02-14T19:13:29.531Z,99.90
2023-02-14T19:15:56.392Z,99.90
2023-02-14T19:18:25.398Z,99.90
2023-02-14T19:20:52.997Z,99.90
2023-02-14T19:23:19.789Z,99.90
2023-02-14T19:25:46.650Z,99.90
2023-02-14T19:28:31.315Z,99.90
2023-02-14T19:30:59.488Z,99.90
2023-02-14T19:33:27.225Z,99.90
2023-02-14T19:36:01.435Z,99.90
2023-02-14T19:38:28.368Z,99.90
2023-02-14T19:40:56.749Z,99.90
2023-02-14T19:43:24.025Z,99.90
2023-02-14T19:45:51.034Z,99.90
2023-02-14T19:48:17.889Z,99.90
2023-02-14T19:50:44.578Z,99.90
2023-02-14T19:53:11.305Z,99.90
2023-02-14T19:55:39.874Z,99.90
2023-02-14T19:58:07.141Z,99.90
2023-02-14T20:00:35.001Z,99.90
2023-02-14T20:03:02.352Z,99.90
2023-02-14T20:05:29.049Z,99.90
2023-02-14T20:07:55.959Z,99.90
2023-02-14T20:10:22.650Z,99.90
2023-02-14T20:12:49.536Z,99.90
2023-02-14T20:15:16.775Z,99.90
2023-02-14T20:17:43.602Z,99.90
2023-02-14T20:20:13.698Z,99.90
2023-02-14T20:22:41.133Z,99.90
2023-02-14T20:25:08.956Z,99.90
2023-02-14T20:27:36.249Z,99.90
2023-02-14T20:30:03.709Z,99.90
2023-02-14T20:32:31.120Z,99.90
2023-02-14T20:34:58.832Z,99.90
2023-02-14T20:37:25.652Z,99.90
2023-02-14T20:39:53.061Z,99.90
2023-02-14T20:42:20.144Z,99.90
2023-02-14T20:44:46.944Z,99.90
2023-02-14T20:47:14.032Z,99.90
2023-02-14T20:49:44.506Z,99.90
2023-02-14T20:52:11.929Z,99.90
2023-02-14T20:54:39.001Z,99.90
2023-02-14T20:57:05.685Z,99.90
2023-02-14T20:59:32.655Z,99.90
2023-02-14T21:01:59.548Z,99.90
2023-02-14T21:04:26.346Z,99.90
2023-02-14T21:06:53.096Z,99.90
2023-02-14T21:09:20.669Z,99.90
2023-02-14T21:11:47.398Z,99.90
2023-02-14T21:14:14.211Z,99.90
2023-02-14T21:16:43.537Z,99.90
2023-02-14T21:19:10.565Z,99.90
2023-02-14T21:21:37.598Z,99.90
2023-02-14T21:24:14.585Z,99.90
2023-02-14T21:26:41.597Z,99.90
2023-02-14T21:29:08.436Z,99.90
2023-02-14T21:31:35.720Z,99.90
2023-02-14T21:34:03.154Z,99.90
2023-02-14T21:36:31.322Z,99.90
2023-02-14T21:38:58.819Z,99.90
2023-02-14T21:41:29.428Z,99.90
2023-02-14T21:43:56.407Z,99.90
2023-02-14T21:46:29.185Z,99.90
2023-02-14T21:49:17.811Z,99.90
2023-02-14T21:51:44.570Z,99.90
2023-02-14T21:54:11.324Z,99.90
2023-02-14T21:56:38.012Z,99.90
2023-02-14T21:59:04.794Z,99.90
2023-02-14T22:01:33.826Z,99.90
2023-02-14T22:04:01.122Z,99.90
2023-02-14T22:06:27.962Z,99.90
2023-02-14T22:08:55.603Z,99.90
2023-02-14T22:11:22.520Z,99.90
2023-02-14T22:13:49.234Z,99.90
2023-02-14T22:16:16.829Z,99.90
2023-02-14T22:18:44.465Z,99.90
2023-02-14T22:21:14.016Z,99.90
2023-02-14T22:23:40.743Z,99.90
2023-02-14T22:26:17.360Z,99.90
2023-02-14T22:28:45.616Z,99.90
2023-02-14T22:31:12.607Z,99.90
2023-02-14T22:33:39.463Z,99.90
2023-02-14T22:36:07.081Z,99.90
2023-02-14T22:38:34.464Z,99.90
2023-02-14T22:41:09.061Z,99.90
2023-02-14T22:43:38.172Z,99.90
2023-02-14T22:46:07.457Z,99.90
2023-02-14T22:48:35.188Z,99.90
2023-02-14T22:51:15.169Z,99.90
2023-02-14T22:53:42.446Z,99.90
2023-02-14T22:56:23.624Z,99.90
2023-02-14T22:58:54.891Z,99.90
2023-02-14T23:01:21.900Z,99.90
2023-02-14T23:03:48.858Z,99.90
2023-02-14T23:06:15.570Z,99.90
2023-02-14T23:08:43.046Z,99.90
2023-02-14T23:11:17.461Z,99.90
2023-02-14T23:14:02.616Z,99.90
2023-02-14T23:16:47.956Z,99.90
2023-02-14T23:19:34.536Z,99.90
2023-02-14T23:22:11.708Z,99.90
2023-02-14T23:24:38.497Z,99.90
2023-02-14T23:27:05.622Z,99.90
2023-02-14T23:29:32.855Z,99.90
2023-02-14T23:31:59.544Z,99.90
2023-02-14T23:34:27.006Z,99.90
2023-02-14T23:36:53.649Z,99.90
2023-02-14T23:39:20.366Z,99.90
2023-02-14T23:41:47.110Z,99.90
2023-02-14T23:44:25.023Z,99.90
2023-02-14T23:46:54.048Z,99.90
2023-02-14T23:49:21.129Z,99.90
2023-02-14T23:51:48.613Z,99.90
2023-02-14T23:54:16.030Z,99.90
2023-02-14T23:56:43.277Z,99.90
2023-02-14T23:59:11.569Z,99.90
